createdAt,value
2022-07-29T00:00:01.720Z,60.98
2022-07-29T00:01:01.672Z,47.21
2022-07-29T00:02:01.682Z,43.65
2022-07-29T00:03:01.765Z,42.44
2022-07-29T00:04:01.722Z,44.45
2022-07-29T00:05:01.670Z,45.09
2022-07-29T00:06:01.695Z,43.71
2022-07-29T00:07:01.656Z,44.30
2022-07-29T00:08:01.672Z,54.28
2022-07-29T00:09:01.630Z,45.33
2022-07-29T00:10:01.652Z,48.34
2022-07-29T00:11:01.648Z,53.24
2022-07-29T00:12:01.629Z,50.44
2022-07-29T00:13:01.603Z,52.81
2022-07-29T00:14:01.596Z,43.99
2022-07-29T00:15:01.611Z,43.20
2022-07-29T00:16:04.503Z,44.07
2022-07-29T00:17:01.596Z,60.74
2022-07-29T00:18:01.558Z,47.63
2022-07-29T00:19:02.420Z,43.27
2022-07-29T00:20:02.563Z,43.51
2022-07-29T00:21:01.559Z,43.74
2022-07-29T00:22:01.548Z,43.44
2022-07-29T00:23:01.571Z,43.17
2022-07-29T00:24:01.544Z,43.53
2022-07-29T00:25:01.532Z,43.01
2022-07-29T00:26:01.512Z,43.50
2022-07-29T00:27:01.540Z,46.06
2022-07-29T00:28:01.517Z,52.02
2022-07-29T00:29:32.543Z,44.74
2022-07-29T00:30:03.519Z,56.86
2022-07-29T00:31:01.522Z,55.29
2022-07-29T00:32:01.623Z,48.43
2022-07-29T00:33:01.491Z,52.59
2022-07-29T00:34:01.470Z,52.77
2022-07-29T00:35:01.478Z,53.05
2022-07-29T00:36:01.479Z,53.00
2022-07-29T00:37:01.457Z,45.49
2022-07-29T00:38:02.132Z,62.70
2022-07-29T00:39:01.454Z,53.05
2022-07-29T00:40:01.442Z,59.87
2022-07-29T00:41:01.432Z,43.65
2022-07-29T00:42:01.419Z,44.65
2022-07-29T00:43:01.426Z,51.80
2022-07-29T00:44:01.425Z,43.32
2022-07-29T00:45:01.438Z,42.48
2022-07-29T00:46:01.408Z,43.09
2022-07-29T00:47:01.485Z,43.91
2022-07-29T00:48:01.459Z,55.20
2022-07-29T00:49:01.450Z,44.33
2022-07-29T00:50:01.395Z,50.82
2022-07-29T00:51:01.370Z,43.08
2022-07-29T00:52:01.358Z,43.17
2022-07-29T00:53:01.377Z,46.20
2022-07-29T00:54:01.390Z,44.33
2022-07-29T00:55:06.353Z,45.46
2022-07-29T00:56:03.386Z,52.89
2022-07-29T00:57:01.330Z,48.97
2022-07-29T00:58:01.320Z,46.24
2022-07-29T00:59:01.338Z,50.65
2022-07-29T01:00:01.374Z,44.27
2022-07-29T01:01:01.374Z,44.42
2022-07-29T01:02:01.363Z,54.42
2022-07-29T01:03:01.303Z,50.42
2022-07-29T01:04:01.295Z,44.91
2022-07-29T01:05:01.329Z,45.01
2022-07-29T01:06:01.283Z,46.32
2022-07-29T01:07:01.403Z,44.69
2022-07-29T01:08:01.277Z,43.87
2022-07-29T01:09:01.255Z,43.39
2022-07-29T01:10:01.264Z,44.64
2022-07-29T01:11:01.270Z,57.08
2022-07-29T01:12:01.240Z,43.99
2022-07-29T01:13:01.222Z,43.90
2022-07-29T01:14:01.271Z,52.02
2022-07-29T01:15:01.259Z,44.38
2022-07-29T01:16:01.297Z,52.69
2022-07-29T01:17:01.214Z,58.36
2022-07-29T01:18:01.196Z,43.71
2022-07-29T01:19:01.210Z,43.66
2022-07-29T01:20:01.203Z,48.35
2022-07-29T01:21:01.218Z,49.04
2022-07-29T01:22:01.175Z,43.78
2022-07-29T01:23:01.204Z,52.14
2022-07-29T01:24:01.210Z,44.73
2022-07-29T01:25:01.203Z,54.19
2022-07-29T01:26:34.582Z,53.61
2022-07-29T01:27:01.167Z,55.22
2022-07-29T01:28:01.238Z,47.83
2022-07-29T01:29:01.135Z,54.86
2022-07-29T01:30:02.135Z,47.58
2022-07-29T01:31:01.179Z,49.66
2022-07-29T01:32:01.391Z,56.66
2022-07-29T01:33:01.105Z,51.38
2022-07-29T01:34:01.123Z,63.73
2022-07-29T01:35:01.102Z,47.59
2022-07-29T01:36:01.091Z,53.67
2022-07-29T01:37:01.085Z,45.45
2022-07-29T01:38:01.125Z,59.65
2022-07-29T01:39:01.065Z,44.36
2022-07-29T01:40:01.075Z,59.55
2022-07-29T01:41:01.083Z,45.35
2022-07-29T01:42:01.075Z,52.89
2022-07-29T01:43:01.034Z,43.82
2022-07-29T01:44:01.042Z,52.30
2022-07-29T01:45:01.082Z,43.91
2022-07-29T01:46:01.042Z,51.29
2022-07-29T01:47:01.098Z,51.13
2022-07-29T01:48:01.011Z,44.29
2022-07-29T01:49:01.060Z,43.94
2022-07-29T01:50:00.980Z,46.60
2022-07-29T01:51:01.034Z,50.86
2022-07-29T01:52:00.987Z,51.23
2022-07-29T01:53:00.974Z,46.90
2022-07-29T01:54:00.969Z,45.38
2022-07-29T01:55:00.962Z,52.24
2022-07-29T01:56:00.967Z,57.22
2022-07-29T01:57:00.979Z,50.21
2022-07-29T01:58:00.936Z,43.96
2022-07-29T01:59:00.983Z,52.96
2022-07-29T02:00:00.927Z,51.28
2022-07-29T02:01:00.956Z,44.38
2022-07-29T02:02:01.045Z,44.63
2022-07-29T02:03:00.914Z,45.93
2022-07-29T02:04:00.917Z,55.28
2022-07-29T02:05:01.045Z,62.08
2022-07-29T02:06:00.914Z,63.66
2022-07-29T02:07:00.983Z,44.19
2022-07-29T02:08:00.882Z,43.59
2022-07-29T02:09:00.879Z,43.92
2022-07-29T02:10:00.916Z,47.27
2022-07-29T02:11:00.918Z,49.79
2022-07-29T02:12:00.867Z,44.24
2022-07-29T02:13:00.849Z,44.36
2022-07-29T02:14:00.850Z,45.14
2022-07-29T02:15:00.847Z,46.16
2022-07-29T02:16:00.913Z,51.96
2022-07-29T02:17:01.854Z,44.87
2022-07-29T02:18:00.809Z,44.27
2022-07-29T02:19:00.818Z,51.34
2022-07-29T02:20:00.823Z,52.58
2022-07-29T02:21:00.785Z,44.65
2022-07-29T02:22:00.799Z,44.82
2022-07-29T02:23:00.791Z,59.90
2022-07-29T02:24:00.848Z,46.29
2022-07-29T02:25:00.836Z,54.95
2022-07-29T02:26:00.771Z,47.52
2022-07-29T02:27:00.797Z,63.64
2022-07-29T02:28:00.749Z,45.70
2022-07-29T02:29:00.743Z,55.56
2022-07-29T02:30:01.414Z,55.15
2022-07-29T02:31:00.762Z,60.50
2022-07-29T02:32:00.729Z,58.62
2022-07-29T02:33:00.728Z,47.58
2022-07-29T02:34:00.789Z,49.46
2022-07-29T02:35:00.726Z,55.24
2022-07-29T02:36:00.730Z,51.73
2022-07-29T02:37:00.702Z,48.17
2022-07-29T02:38:00.750Z,55.40
2022-07-29T02:39:00.678Z,59.99
2022-07-29T02:40:00.679Z,65.70
2022-07-29T02:41:00.671Z,50.57
2022-07-29T02:42:00.649Z,54.78
2022-07-29T02:43:00.703Z,58.83
2022-07-29T02:44:00.641Z,45.98
2022-07-29T02:45:00.635Z,59.19
2022-07-29T02:46:00.705Z,45.95
2022-07-29T02:47:00.703Z,45.55
2022-07-29T02:48:00.623Z,64.31
2022-07-29T02:49:00.657Z,56.79
2022-07-29T02:50:00.838Z,60.90
2022-07-29T02:51:00.596Z,47.85
2022-07-29T02:52:00.585Z,46.32
2022-07-29T02:53:00.629Z,55.93
2022-07-29T02:54:00.581Z,60.58
2022-07-29T02:55:00.583Z,62.89
2022-07-29T02:56:00.565Z,64.55
2022-07-29T02:57:00.562Z,60.85
2022-07-29T02:58:00.544Z,63.29
2022-07-29T02:59:00.542Z,57.82
2022-07-29T03:00:00.550Z,60.39
2022-07-29T03:01:00.518Z,62.10
2022-07-29T03:02:00.610Z,59.48
2022-07-29T03:03:00.516Z,52.75
2022-07-29T03:04:00.514Z,57.63
2022-07-29T03:05:00.605Z,61.35
2022-07-29T03:06:00.477Z,57.10
2022-07-29T03:07:00.482Z,58.02
2022-07-29T03:08:00.468Z,64.99
2022-07-29T03:09:00.466Z,56.65
2022-07-29T03:10:00.489Z,59.29
2022-07-29T03:11:00.445Z,67.76
2022-07-29T03:12:00.453Z,61.25
2022-07-29T03:13:00.445Z,61.51
2022-07-29T03:14:00.497Z,61.22
2022-07-29T03:15:00.449Z,47.29
2022-07-29T03:16:00.562Z,62.41
2022-07-29T03:17:00.420Z,56.79
2022-07-29T03:18:00.409Z,60.70
2022-07-29T03:19:00.392Z,63.22
2022-07-29T03:20:00.421Z,66.85
2022-07-29T03:21:00.402Z,66.68
2022-07-29T03:22:00.384Z,58.44
2022-07-29T03:23:00.371Z,59.56
2022-07-29T03:24:00.388Z,66.14
2022-07-29T03:25:00.356Z,66.22
2022-07-29T03:26:00.386Z,57.67
2022-07-29T03:27:00.417Z,64.23
2022-07-29T03:28:00.336Z,63.21
2022-07-29T03:29:00.336Z,66.56
2022-07-29T03:30:00.331Z,61.17
2022-07-29T03:31:00.395Z,62.54
2022-07-29T03:32:00.317Z,69.36
2022-07-29T03:33:00.314Z,63.27
2022-07-29T03:34:00.361Z,59.71
2022-07-29T03:35:00.309Z,56.57
2022-07-29T03:36:00.288Z,64.18
2022-07-29T03:37:00.813Z,60.97
2022-07-29T03:38:00.281Z,63.02
2022-07-29T03:39:00.305Z,61.86
2022-07-29T03:40:00.269Z,56.35
2022-07-29T03:41:00.261Z,58.44
2022-07-29T03:42:00.257Z,63.40
2022-07-29T03:43:00.253Z,64.55
2022-07-29T03:44:00.248Z,68.05
2022-07-29T03:45:00.233Z,72.81
2022-07-29T03:46:00.287Z,60.84
2022-07-29T03:47:00.225Z,64.81
2022-07-29T03:48:01.142Z,62.15
2022-07-29T03:49:01.274Z,66.08
2022-07-29T03:50:00.237Z,62.05
2022-07-29T03:51:00.190Z,62.72
2022-07-29T03:52:00.186Z,67.90
2022-07-29T03:53:00.214Z,56.68
2022-07-29T03:54:00.174Z,68.46
2022-07-29T03:55:00.203Z,68.58
2022-07-29T03:56:00.169Z,70.25
2022-07-29T03:57:00.169Z,66.03
2022-07-29T03:58:00.152Z,63.36
2022-07-29T03:59:00.201Z,67.03
2022-07-29T04:00:01.149Z,63.91
2022-07-29T04:01:00.130Z,66.15
2022-07-29T04:02:00.170Z,64.91
2022-07-29T04:03:00.139Z,62.67
2022-07-29T04:04:00.243Z,52.29
2022-07-29T04:05:00.115Z,69.75
2022-07-29T04:06:00.086Z,60.11
2022-07-29T04:07:00.097Z,59.01
2022-07-29T04:08:00.130Z,64.87
2022-07-29T04:09:00.083Z,70.69
2022-07-29T04:10:00.086Z,51.53
2022-07-29T04:11:00.111Z,68.76
2022-07-29T04:12:03.565Z,62.19
2022-07-29T04:13:00.076Z,62.53
2022-07-29T04:14:00.041Z,59.94
2022-07-29T04:15:00.094Z,66.86
2022-07-29T04:16:00.071Z,67.63
2022-07-29T04:17:00.016Z,60.64
2022-07-29T04:18:00.132Z,67.78
2022-07-29T04:19:00.009Z,66.10
2022-07-29T04:20:00.068Z,71.52
2022-07-29T04:21:00.012Z,67.02
2022-07-29T04:21:59.986Z,69.32
2022-07-29T04:23:00.008Z,63.08
2022-07-29T04:23:59.981Z,70.60
2022-07-29T04:25:03.671Z,61.97
2022-07-29T04:26:01.776Z,69.04
2022-07-29T04:26:59.949Z,64.20
2022-07-29T04:28:00.013Z,63.30
2022-07-29T04:28:59.969Z,66.14
2022-07-29T04:29:59.941Z,65.39
2022-07-29T04:31:00.020Z,66.80
2022-07-29T04:31:59.915Z,70.03
2022-07-29T04:32:59.952Z,62.59
2022-07-29T04:33:59.917Z,65.04
2022-07-29T04:34:59.898Z,67.49
2022-07-29T04:35:59.926Z,68.59
2022-07-29T04:36:59.885Z,70.61
2022-07-29T04:37:59.895Z,67.95
2022-07-29T04:38:59.871Z,69.29
2022-07-29T04:39:59.863Z,66.57
2022-07-29T04:40:59.894Z,66.90
2022-07-29T04:41:59.869Z,71.59
2022-07-29T04:42:59.838Z,65.26
2022-07-29T04:43:59.836Z,63.09
2022-07-29T04:45:01.272Z,69.95
2022-07-29T04:45:59.907Z,68.72
2022-07-29T04:46:59.826Z,68.11
2022-07-29T04:47:59.817Z,69.51
2022-07-29T04:48:59.956Z,72.31
2022-07-29T04:49:59.800Z,69.87
2022-07-29T04:50:59.828Z,64.24
2022-07-29T04:51:59.817Z,71.35
2022-07-29T04:52:59.779Z,71.05
2022-07-29T04:53:59.802Z,63.69
2022-07-29T04:55:00.758Z,66.34
2022-07-29T04:55:59.755Z,70.49
2022-07-29T04:56:59.801Z,66.98
2022-07-29T04:57:59.730Z,69.68
2022-07-29T04:58:59.766Z,65.18
2022-07-29T04:59:59.753Z,65.83
2022-07-29T05:00:59.722Z,66.33
2022-07-29T05:01:59.837Z,67.37
2022-07-29T05:02:59.770Z,69.85
2022-07-29T05:04:00.713Z,63.09
2022-07-29T05:05:01.337Z,66.25
2022-07-29T05:05:59.684Z,58.37
2022-07-29T05:06:59.680Z,63.78
2022-07-29T05:07:59.681Z,62.35
2022-07-29T05:08:59.676Z,66.90
2022-07-29T05:09:59.655Z,67.34
2022-07-29T05:11:01.767Z,62.63
2022-07-29T05:12:00.651Z,68.72
2022-07-29T05:12:59.660Z,59.93
2022-07-29T05:13:59.654Z,67.14
2022-07-29T05:14:59.621Z,59.55
2022-07-29T05:15:59.737Z,70.84
2022-07-29T05:16:59.606Z,65.96
2022-07-29T05:17:59.604Z,69.52
2022-07-29T05:18:59.621Z,64.45
2022-07-29T05:19:59.618Z,68.43
2022-07-29T05:20:59.604Z,72.54
2022-07-29T05:21:59.574Z,65.89
2022-07-29T05:22:59.586Z,71.17
2022-07-29T05:23:59.582Z,70.46
2022-07-29T05:24:59.564Z,65.82
2022-07-29T05:25:59.555Z,69.84
2022-07-29T05:26:59.560Z,67.50
2022-07-29T05:27:59.623Z,65.16
2022-07-29T05:28:59.566Z,73.47
2022-07-29T05:29:59.540Z,67.35
2022-07-29T05:30:59.581Z,71.93
2022-07-29T05:31:59.507Z,70.71
2022-07-29T05:32:59.504Z,67.71
2022-07-29T05:34:00.449Z,71.84
2022-07-29T05:34:59.498Z,66.30
2022-07-29T05:36:00.919Z,69.52
2022-07-29T05:37:00.503Z,63.36
2022-07-29T05:37:59.490Z,68.07
2022-07-29T05:39:01.452Z,64.48
2022-07-29T05:39:59.465Z,69.75
2022-07-29T05:40:59.464Z,70.34
2022-07-29T05:41:59.479Z,68.26
2022-07-29T05:42:59.432Z,63.91
2022-07-29T05:43:59.492Z,75.23
2022-07-29T05:44:59.441Z,62.04
2022-07-29T05:45:59.539Z,69.98
2022-07-29T05:46:59.402Z,66.27
2022-07-29T05:47:59.439Z,72.68
2022-07-29T05:48:59.487Z,62.94
2022-07-29T05:49:59.419Z,65.84
2022-07-29T05:50:59.414Z,68.06
2022-07-29T05:51:59.389Z,68.95
2022-07-29T05:52:59.385Z,67.11
2022-07-29T05:53:59.400Z,72.18
2022-07-29T05:54:59.380Z,71.83
2022-07-29T05:55:59.388Z,69.28
2022-07-29T05:56:59.352Z,68.75
2022-07-29T05:57:59.343Z,69.85
2022-07-29T05:58:59.333Z,67.18
2022-07-29T05:59:59.348Z,64.87
2022-07-29T06:00:59.385Z,71.19
2022-07-29T06:01:59.352Z,68.70
2022-07-29T06:02:59.573Z,69.45
2022-07-29T06:03:59.349Z,62.03
2022-07-29T06:04:59.375Z,70.09
2022-07-29T06:05:59.302Z,72.72
2022-07-29T06:06:59.322Z,70.36
2022-07-29T06:07:59.289Z,67.31
2022-07-29T06:08:59.270Z,69.05
2022-07-29T06:09:59.326Z,63.77
2022-07-29T06:10:59.259Z,64.88
2022-07-29T06:11:59.255Z,73.38
2022-07-29T06:12:59.310Z,54.12
2022-07-29T06:13:59.240Z,65.84
2022-07-29T06:14:59.237Z,67.42
2022-07-29T06:15:59.391Z,68.31
2022-07-29T06:16:59.208Z,67.11
2022-07-29T06:18:01.207Z,68.96
2022-07-29T06:18:59.241Z,64.01
2022-07-29T06:19:59.208Z,67.07
2022-07-29T06:20:59.215Z,66.58
2022-07-29T06:21:59.201Z,66.35
2022-07-29T06:22:59.231Z,70.28
2022-07-29T06:23:59.196Z,62.55
2022-07-29T06:24:59.181Z,69.24
2022-07-29T06:25:59.161Z,67.83
2022-07-29T06:26:59.204Z,65.69
2022-07-29T06:27:59.203Z,73.73
2022-07-29T06:28:59.140Z,68.59
2022-07-29T06:29:59.160Z,69.63
2022-07-29T06:30:59.223Z,71.12
2022-07-29T06:31:59.128Z,68.16
2022-07-29T06:32:59.167Z,67.08
2022-07-29T06:33:59.114Z,69.83
2022-07-29T06:35:24.363Z,70.33
2022-07-29T06:36:01.132Z,66.02
2022-07-29T06:36:59.115Z,72.00
2022-07-29T06:37:59.749Z,67.17
2022-07-29T06:38:59.082Z,67.63
2022-07-29T06:39:59.699Z,68.66
2022-07-29T06:41:00.080Z,70.33
2022-07-29T06:41:59.136Z,64.23
2022-07-29T06:42:59.056Z,69.14
2022-07-29T06:43:59.069Z,69.72
2022-07-29T06:44:59.067Z,69.13
2022-07-29T06:45:59.098Z,73.02
2022-07-29T06:46:59.031Z,70.60
2022-07-29T06:47:59.043Z,68.00
2022-07-29T06:48:59.123Z,71.02
2022-07-29T06:49:59.018Z,73.07
2022-07-29T06:50:59.019Z,68.81
2022-07-29T06:51:58.995Z,67.65
2022-07-29T06:52:59.015Z,73.80
2022-07-29T06:54:02.338Z,71.06
2022-07-29T06:54:58.965Z,71.54
2022-07-29T06:55:58.975Z,68.91
2022-07-29T06:56:58.982Z,69.47
2022-07-29T06:57:58.958Z,68.21
2022-07-29T06:58:58.993Z,61.25
2022-07-29T06:59:58.946Z,69.68
2022-07-29T07:00:59.049Z,65.73
2022-07-29T07:01:59.033Z,69.54
2022-07-29T07:02:58.923Z,69.90
2022-07-29T07:03:58.937Z,70.37
2022-07-29T07:04:58.917Z,69.19
2022-07-29T07:05:58.926Z,65.87
2022-07-29T07:06:58.937Z,68.18
2022-07-29T07:07:58.934Z,68.31
2022-07-29T07:08:58.951Z,62.47
2022-07-29T07:09:58.941Z,72.59
2022-07-29T07:10:58.900Z,68.90
2022-07-29T07:11:58.950Z,69.73
2022-07-29T07:12:58.870Z,67.75
2022-07-29T07:14:03.003Z,68.48
2022-07-29T07:14:59.875Z,70.36
2022-07-29T07:15:58.841Z,70.02
2022-07-29T07:16:58.889Z,70.65
2022-07-29T07:17:58.849Z,66.60
2022-07-29T07:18:58.846Z,72.07
2022-07-29T07:19:58.829Z,69.09
2022-07-29T07:20:58.826Z,69.64
2022-07-29T07:21:58.878Z,74.59
2022-07-29T07:22:58.803Z,66.85
2022-07-29T07:23:58.788Z,69.29
2022-07-29T07:24:58.811Z,69.66
2022-07-29T07:25:58.879Z,66.67
2022-07-29T07:26:58.783Z,71.00
2022-07-29T07:27:58.787Z,65.41
2022-07-29T07:28:58.771Z,66.71
2022-07-29T07:29:58.803Z,67.55
2022-07-29T07:30:58.803Z,69.71
2022-07-29T07:32:01.041Z,72.12
2022-07-29T07:32:59.756Z,67.79
2022-07-29T07:33:58.727Z,64.32
2022-07-29T07:34:58.831Z,69.30
2022-07-29T07:35:58.741Z,71.13
2022-07-29T07:36:58.720Z,65.07
2022-07-29T07:37:58.697Z,68.06
2022-07-29T07:38:58.710Z,68.92
2022-07-29T07:39:58.710Z,72.89
2022-07-29T07:40:58.703Z,68.03
2022-07-29T07:41:58.695Z,70.39
2022-07-29T07:42:58.671Z,69.95
2022-07-29T07:43:58.669Z,73.09
2022-07-29T07:45:12.946Z,71.38
2022-07-29T07:46:00.764Z,58.63
2022-07-29T07:46:58.673Z,71.62
2022-07-29T07:47:59.640Z,74.45
2022-07-29T07:48:58.713Z,73.88
2022-07-29T07:49:58.643Z,70.16
2022-07-29T07:50:58.628Z,69.14
2022-07-29T07:51:58.624Z,70.31
2022-07-29T07:52:58.934Z,72.36
2022-07-29T07:53:58.613Z,70.57
2022-07-29T07:54:58.626Z,68.02
2022-07-29T07:56:13.921Z,72.43
2022-07-29T07:57:00.693Z,69.09
2022-07-29T07:57:58.566Z,66.80
2022-07-29T07:58:58.558Z,71.52
2022-07-29T07:59:58.558Z,72.54
2022-07-29T08:00:58.659Z,73.79
2022-07-29T08:01:58.843Z,71.06
2022-07-29T08:02:58.631Z,73.21
2022-07-29T08:03:58.561Z,74.26
2022-07-29T08:04:58.515Z,72.21
2022-07-29T08:05:58.540Z,72.66
2022-07-29T08:06:59.431Z,73.57
2022-07-29T08:07:58.491Z,73.61
2022-07-29T08:09:19.536Z,72.67
2022-07-29T08:10:00.534Z,70.82
2022-07-29T08:10:58.513Z,72.77
2022-07-29T08:11:58.528Z,71.48
2022-07-29T08:12:58.463Z,72.43
2022-07-29T08:13:58.466Z,70.45
2022-07-29T08:14:58.451Z,74.48
2022-07-29T08:15:58.925Z,73.52
2022-07-29T08:16:58.488Z,73.44
2022-07-29T08:17:58.457Z,68.13
2022-07-29T08:18:58.469Z,73.29
2022-07-29T08:19:58.426Z,74.87
2022-07-29T08:20:58.448Z,73.60
2022-07-29T08:21:58.443Z,68.15
2022-07-29T08:22:58.462Z,70.46
2022-07-29T08:24:02.887Z,72.63
2022-07-29T08:25:00.454Z,72.11
2022-07-29T08:25:58.386Z,72.18
2022-07-29T08:26:58.430Z,73.91
2022-07-29T08:27:58.448Z,72.29
2022-07-29T08:28:58.391Z,71.12
2022-07-29T08:29:58.368Z,74.47
2022-07-29T08:30:58.438Z,72.48
2022-07-29T08:31:58.400Z,70.80
2022-07-29T08:32:58.431Z,72.50
2022-07-29T08:33:58.483Z,74.04
2022-07-29T08:34:58.339Z,71.36
2022-07-29T08:35:58.365Z,77.13
2022-07-29T08:36:58.339Z,75.41
2022-07-29T08:37:58.472Z,73.06
2022-07-29T08:38:58.312Z,71.25
2022-07-29T08:39:58.327Z,72.50
2022-07-29T08:40:58.939Z,69.46
2022-07-29T08:41:59.127Z,72.06
2022-07-29T08:42:58.282Z,73.30
2022-07-29T08:43:59.269Z,75.18
2022-07-29T08:44:58.282Z,76.53
2022-07-29T08:45:58.413Z,73.66
2022-07-29T08:46:58.341Z,73.00
2022-07-29T08:47:58.248Z,75.26
2022-07-29T08:48:58.306Z,71.10
2022-07-29T08:49:58.266Z,75.56
2022-07-29T08:50:58.302Z,72.49
2022-07-29T08:51:59.271Z,70.34
2022-07-29T08:53:00.037Z,72.20
2022-07-29T08:53:59.209Z,74.95
2022-07-29T08:54:58.203Z,72.13
2022-07-29T08:55:58.202Z,70.89
2022-07-29T08:56:58.201Z,72.60
2022-07-29T08:57:58.175Z,71.75
2022-07-29T08:58:58.192Z,72.92
2022-07-29T08:59:58.254Z,72.64
2022-07-29T09:00:58.385Z,71.89
2022-07-29T09:01:58.504Z,69.96
2022-07-29T09:02:58.151Z,70.20
2022-07-29T09:03:58.231Z,72.71
2022-07-29T09:04:58.132Z,74.43
2022-07-29T09:05:58.138Z,70.74
2022-07-29T09:06:58.105Z,72.67
2022-07-29T09:07:58.143Z,72.84
2022-07-29T09:08:58.106Z,72.21
2022-07-29T09:09:58.133Z,71.81
2022-07-29T09:10:58.103Z,71.53
2022-07-29T09:11:58.323Z,72.88
2022-07-29T09:12:58.081Z,70.11
2022-07-29T09:13:58.072Z,70.43
2022-07-29T09:14:58.061Z,71.09
2022-07-29T09:15:58.110Z,72.31
2022-07-29T09:16:58.114Z,71.22
2022-07-29T09:17:58.081Z,75.81
2022-07-29T09:19:00.170Z,73.35
2022-07-29T09:19:58.042Z,69.31
2022-07-29T09:20:58.033Z,73.75
2022-07-29T09:21:58.057Z,73.26
2022-07-29T09:22:58.148Z,72.36
2022-07-29T09:23:58.048Z,73.83
2022-07-29T09:24:57.989Z,74.51
2022-07-29T09:25:57.971Z,71.98
2022-07-29T09:26:59.034Z,73.68
2022-07-29T09:27:57.970Z,71.34
2022-07-29T09:28:57.982Z,73.93
2022-07-29T09:29:58.958Z,73.48
2022-07-29T09:30:58.002Z,72.48
2022-07-29T09:31:57.998Z,69.85
2022-07-29T09:32:57.944Z,71.93
2022-07-29T09:33:57.958Z,72.88
2022-07-29T09:34:58.527Z,73.51
2022-07-29T09:35:58.979Z,68.05
2022-07-29T09:36:58.432Z,72.77
2022-07-29T09:37:57.906Z,72.46
2022-07-29T09:38:57.997Z,73.26
2022-07-29T09:39:57.905Z,71.58
2022-07-29T09:40:57.910Z,71.24
2022-07-29T09:41:58.889Z,70.84
2022-07-29T09:42:57.893Z,70.64
2022-07-29T09:43:57.881Z,71.30
2022-07-29T09:44:57.877Z,70.65
2022-07-29T09:45:57.859Z,71.50
2022-07-29T09:46:58.426Z,72.78
2022-07-29T09:47:57.892Z,68.75
2022-07-29T09:48:58.555Z,71.93
2022-07-29T09:49:57.870Z,72.32
2022-07-29T09:50:57.826Z,70.69
2022-07-29T09:51:57.842Z,71.80
2022-07-29T09:52:57.829Z,72.15
2022-07-29T09:53:57.854Z,71.47
2022-07-29T09:54:57.817Z,73.25
2022-07-29T09:55:57.805Z,70.60
2022-07-29T09:56:58.114Z,72.03
2022-07-29T09:57:57.862Z,73.59
2022-07-29T09:58:57.877Z,75.15
2022-07-29T09:59:57.768Z,72.97
2022-07-29T10:00:58.476Z,70.92
2022-07-29T10:01:58.093Z,72.76
2022-07-29T10:02:57.861Z,75.40
2022-07-29T10:03:57.722Z,72.71
2022-07-29T10:04:58.737Z,72.97
2022-07-29T10:05:57.726Z,73.56
2022-07-29T10:07:03.816Z,74.09
2022-07-29T10:07:59.745Z,73.36
2022-07-29T10:08:57.701Z,69.60
2022-07-29T10:09:57.694Z,73.60
2022-07-29T10:10:57.755Z,70.73
2022-07-29T10:11:57.816Z,73.63
2022-07-29T10:12:58.023Z,72.68
2022-07-29T10:13:58.713Z,73.65
2022-07-29T10:14:57.651Z,72.71
2022-07-29T10:15:57.678Z,74.07
2022-07-29T10:16:57.675Z,72.68
2022-07-29T10:17:58.538Z,72.40
2022-07-29T10:18:57.674Z,72.42
2022-07-29T10:19:57.654Z,70.64
2022-07-29T10:20:58.412Z,72.28
2022-07-29T10:21:58.342Z,73.62
2022-07-29T10:22:58.672Z,71.44
2022-07-29T10:23:59.586Z,71.02
2022-07-29T10:24:57.615Z,71.53
2022-07-29T10:25:57.595Z,71.51
2022-07-29T10:26:57.606Z,69.87
2022-07-29T10:27:57.593Z,71.54
2022-07-29T10:28:57.566Z,70.32
2022-07-29T10:29:57.572Z,71.13
2022-07-29T10:30:57.695Z,71.95
2022-07-29T10:31:57.880Z,71.33
2022-07-29T10:32:57.546Z,72.47
2022-07-29T10:33:57.563Z,70.78
2022-07-29T10:34:57.588Z,71.92
2022-07-29T10:35:57.538Z,72.86
2022-07-29T10:36:57.556Z,69.49
2022-07-29T10:37:57.630Z,67.97
2022-07-29T10:38:57.567Z,70.72
2022-07-29T10:39:57.520Z,73.46
2022-07-29T10:40:57.512Z,72.04
2022-07-29T10:41:57.854Z,72.11
2022-07-29T10:42:57.519Z,73.95
2022-07-29T10:43:57.514Z,73.21
2022-07-29T10:44:57.525Z,72.17
2022-07-29T10:45:57.721Z,71.36
2022-07-29T10:46:57.575Z,69.93
2022-07-29T10:47:58.518Z,72.12
2022-07-29T10:48:57.548Z,69.74
2022-07-29T10:49:57.487Z,70.42
2022-07-29T10:50:58.022Z,69.45
2022-07-29T10:51:58.111Z,69.89
2022-07-29T10:52:57.535Z,74.22
2022-07-29T10:53:57.448Z,71.46
2022-07-29T10:54:57.535Z,70.53
2022-07-29T10:55:57.432Z,72.01
2022-07-29T10:56:57.438Z,71.51
2022-07-29T10:57:57.447Z,71.98
2022-07-29T10:58:57.522Z,69.93
2022-07-29T10:59:57.416Z,72.96
2022-07-29T11:00:57.557Z,70.95
2022-07-29T11:02:27.836Z,73.88
2022-07-29T11:02:59.582Z,72.66
2022-07-29T11:03:57.413Z,71.70
2022-07-29T11:04:57.401Z,74.14
2022-07-29T11:05:59.867Z,71.34
2022-07-29T11:06:57.448Z,69.67
2022-07-29T11:07:57.395Z,66.29
2022-07-29T11:08:57.428Z,64.97
2022-07-29T11:09:57.417Z,72.08
2022-07-29T11:10:57.420Z,72.19
2022-07-29T11:11:58.367Z,71.30
2022-07-29T11:12:57.351Z,73.24
2022-07-29T11:13:57.414Z,72.29
2022-07-29T11:14:58.403Z,72.63
2022-07-29T11:15:58.042Z,71.28
2022-07-29T11:16:57.355Z,71.77
2022-07-29T11:17:59.464Z,71.26
2022-07-29T11:18:57.315Z,70.46
2022-07-29T11:19:57.306Z,72.79
2022-07-29T11:20:57.307Z,69.99
2022-07-29T11:21:58.591Z,70.63
2022-07-29T11:22:57.310Z,68.83
2022-07-29T11:23:57.295Z,69.18
2022-07-29T11:24:57.979Z,70.46
2022-07-29T11:25:57.298Z,71.37
2022-07-29T11:27:00.475Z,69.66
2022-07-29T11:27:58.343Z,73.86
2022-07-29T11:28:57.286Z,75.60
2022-07-29T11:29:58.661Z,72.17
2022-07-29T11:30:57.846Z,70.61
2022-07-29T11:31:57.456Z,69.76
2022-07-29T11:32:57.324Z,70.53
2022-07-29T11:33:57.998Z,71.16
2022-07-29T11:34:57.201Z,72.38
2022-07-29T11:36:00.868Z,70.54
2022-07-29T11:36:58.456Z,72.76
2022-07-29T11:37:58.201Z,71.73
2022-07-29T11:38:57.200Z,73.61
2022-07-29T11:40:01.482Z,72.01
2022-07-29T11:40:59.160Z,70.79
2022-07-29T11:42:00.463Z,70.40
2022-07-29T11:42:58.325Z,71.57
2022-07-29T11:43:57.183Z,70.56
2022-07-29T11:44:57.126Z,73.28
2022-07-29T11:45:57.184Z,70.77
2022-07-29T11:46:57.171Z,73.27
2022-07-29T11:48:00.850Z,71.13
2022-07-29T11:48:58.183Z,70.75
2022-07-29T11:49:57.159Z,71.15
2022-07-29T11:50:58.177Z,71.55
2022-07-29T11:51:57.209Z,72.55
2022-07-29T11:52:57.216Z,72.93
2022-07-29T11:54:29.555Z,71.36
2022-07-29T11:54:58.184Z,68.15
2022-07-29T11:55:58.375Z,71.42
2022-07-29T11:56:57.051Z,67.24
2022-07-29T11:58:03.753Z,70.87
2022-07-29T11:58:58.078Z,71.11
2022-07-29T12:00:00.403Z,70.82
2022-07-29T12:00:58.094Z,69.55
2022-07-29T12:02:18.558Z,69.40
2022-07-29T12:02:59.071Z,68.93
2022-07-29T12:03:57.575Z,70.61
2022-07-29T12:04:57.009Z,71.38
2022-07-29T12:05:57.513Z,70.68
2022-07-29T12:07:00.491Z,69.08
2022-07-29T12:07:57.052Z,71.06
2022-07-29T12:08:57.002Z,69.70
2022-07-29T12:09:57.131Z,70.20
2022-07-29T12:10:56.983Z,66.45
2022-07-29T12:11:59.681Z,69.87
2022-07-29T12:12:57.947Z,69.95
2022-07-29T12:13:57.029Z,72.37
2022-07-29T12:14:56.921Z,70.31
2022-07-29T12:15:56.991Z,68.58
2022-07-29T12:16:56.950Z,70.44
2022-07-29T12:17:57.513Z,67.53
2022-07-29T12:18:56.932Z,70.65
2022-07-29T12:19:57.113Z,67.02
2022-07-29T12:20:56.936Z,67.17
2022-07-29T12:21:59.523Z,69.97
2022-07-29T12:22:56.937Z,70.64
2022-07-29T12:23:57.717Z,68.05
2022-07-29T12:25:02.324Z,72.02
2022-07-29T12:25:58.858Z,70.15
2022-07-29T12:26:56.846Z,70.62
2022-07-29T12:27:56.842Z,70.09
2022-07-29T12:28:56.856Z,70.01
2022-07-29T12:29:56.867Z,73.06
2022-07-29T12:30:56.822Z,73.31
2022-07-29T12:31:57.970Z,71.79
2022-07-29T12:32:56.817Z,70.34
2022-07-29T12:33:56.797Z,70.27
2022-07-29T12:34:56.830Z,66.41
2022-07-29T12:36:07.532Z,72.28
2022-07-29T12:36:58.834Z,68.56
2022-07-29T12:37:56.764Z,70.73
2022-07-29T12:38:56.808Z,67.46
2022-07-29T12:39:56.771Z,67.60
2022-07-29T12:40:56.782Z,71.73
2022-07-29T12:42:03.991Z,71.09
2022-07-29T12:42:57.756Z,71.29
2022-07-29T12:43:56.738Z,67.62
2022-07-29T12:44:56.764Z,69.15
2022-07-29T12:45:56.764Z,71.91
2022-07-29T12:46:56.780Z,72.07
2022-07-29T12:47:56.788Z,69.15
2022-07-29T12:48:56.720Z,70.76
2022-07-29T12:49:56.748Z,70.36
2022-07-29T12:50:56.725Z,67.54
2022-07-29T12:51:56.982Z,75.12